sensor_id;sensor_type;location;lat;lon;timestamp;pressure;altitude;pressure_sealevel;temperature;humidity
2549;BME280;1284;53.520;10.248;2023-01-31T00:00:52;100893.66;;;5.48;91.75
2549;BME280;1284;53.520;10.248;2023-01-31T00:03:18;100894.59;;;5.53;91.77
2549;BME280;1284;53.520;10.248;2023-01-31T00:05:44;100892.41;;;5.55;91.95
2549;BME280;1284;53.520;10.248;2023-01-31T00:08:09;100882.94;;;5.66;91.94
2549;BME280;1284;53.520;10.248;2023-01-31T00:10:36;100900.88;;;5.57;92.46
2549;BME280;1284;53.520;10.248;2023-01-31T00:13:02;100898.34;;;5.60;91.71
2549;BME280;1284;53.520;10.248;2023-01-31T00:15:27;100903.25;;;5.67;91.12
2549;BME280;1284;53.520;10.248;2023-01-31T00:17:54;100897.44;;;5.65;91.24
2549;BME280;1284;53.520;10.248;2023-01-31T00:20:19;100912.81;;;5.50;92.54
2549;BME280;1284;53.520;10.248;2023-01-31T00:22:45;100893.81;;;5.61;92.22
2549;BME280;1284;53.520;10.248;2023-01-31T00:25:10;100898.53;;;5.38;92.69
2549;BME280;1284;53.520;10.248;2023-01-31T00:27:36;100896.47;;;5.26;94.20
2549;BME280;1284;53.520;10.248;2023-01-31T00:30:02;100898.03;;;5.10;95.52
2549;BME280;1284;53.520;10.248;2023-01-31T00:32:27;100908.56;;;5.41;94.52
2549;BME280;1284;53.520;10.248;2023-01-31T00:34:54;100914.72;;;5.41;94.03
2549;BME280;1284;53.520;10.248;2023-01-31T00:37:20;100920.63;;;5.21;95.16
2549;BME280;1284;53.520;10.248;2023-01-31T00:39:46;100919.41;;;5.36;94.71
2549;BME280;1284;53.520;10.248;2023-01-31T00:42:15;100920.19;;;5.62;93.74
2549;BME280;1284;53.520;10.248;2023-01-31T00:44:40;100903.38;;;5.62;92.85
2549;BME280;1284;53.520;10.248;2023-01-31T00:47:06;100922.72;;;5.76;92.05
2549;BME280;1284;53.520;10.248;2023-01-31T00:49:31;100920.19;;;5.62;92.78
2549;BME280;1284;53.520;10.248;2023-01-31T00:51:57;100912.03;;;5.59;93.79
2549;BME280;1284;53.520;10.248;2023-01-31T00:54:23;100920.69;;;5.73;93.51
2549;BME280;1284;53.520;10.248;2023-01-31T00:56:48;100928.06;;;5.76;92.19
2549;BME280;1284;53.520;10.248;2023-01-31T00:59:14;100934.66;;;5.95;92.28
2549;BME280;1284;53.520;10.248;2023-01-31T01:01:40;100933.56;;;5.88;93.98
2549;BME280;1284;53.520;10.248;2023-01-31T01:04:05;100942.22;;;6.02;94.28
2549;BME280;1284;53.520;10.248;2023-01-31T01:06:32;100950.06;;;5.73;96.30
2549;BME280;1284;53.520;10.248;2023-01-31T01:08:58;100949.91;;;5.61;97.35
2549;BME280;1284;53.520;10.248;2023-01-31T01:11:27;100948.50;;;5.80;96.76
2549;BME280;1284;53.520;10.248;2023-01-31T01:13:53;100938.88;;;5.53;98.78
2549;BME280;1284;53.520;10.248;2023-01-31T01:16:22;100939.66;;;5.37;99.13
2549;BME280;1284;53.520;10.248;2023-01-31T01:18:48;100933.06;;;5.34;99.00
2549;BME280;1284;53.520;10.248;2023-01-31T01:21:26;100938.25;;;5.39;98.68
2549;BME280;1284;53.520;10.248;2023-01-31T01:23:52;100949.13;;;5.52;98.28
2549;BME280;1284;53.520;10.248;2023-01-31T01:26:25;100939.22;;;5.43;96.95
2549;BME280;1284;53.520;10.248;2023-01-31T01:28:54;100940.16;;;5.47;97.16
2549;BME280;1284;53.520;10.248;2023-01-31T01:31:20;100945.47;;;5.39;97.18
2549;BME280;1284;53.520;10.248;2023-01-31T01:33:47;100954.72;;;5.33;97.63
2549;BME280;1284;53.520;10.248;2023-01-31T01:36:15;100950.28;;;5.11;98.55
2549;BME280;1284;53.520;10.248;2023-01-31T01:38:42;100937.25;;;5.01;99.68
2549;BME280;1284;53.520;10.248;2023-01-31T01:41:09;100943.88;;;5.12;99.11
2549;BME280;1284;53.520;10.248;2023-01-31T01:46:13;100946.38;;;5.09;99.29
2549;BME280;1284;53.520;10.248;2023-01-31T01:48:42;100947.63;;;5.11;98.33
2549;BME280;1284;53.520;10.248;2023-01-31T01:51:09;100947.31;;;5.04;98.62
2549;BME280;1284;53.520;10.248;2023-01-31T01:53:40;100948.53;;;4.98;99.21
2549;BME280;1284;53.520;10.248;2023-01-31T01:56:10;100947.75;;;4.98;99.33
2549;BME280;1284;53.520;10.248;2023-01-31T01:58:51;100961.75;;;5.12;99.35
2549;BME280;1284;53.520;10.248;2023-01-31T02:01:21;100963.50;;;5.16;98.33
2549;BME280;1284;53.520;10.248;2023-01-31T02:03:47;100953.44;;;5.13;98.62
2549;BME280;1284;53.520;10.248;2023-01-31T02:06:13;100957.09;;;5.26;99.12
2549;BME280;1284;53.520;10.248;2023-01-31T02:08:41;100957.09;;;5.34;97.66
2549;BME280;1284;53.520;10.248;2023-01-31T02:11:11;100962.91;;;5.36;97.85
2549;BME280;1284;53.520;10.248;2023-01-31T02:13:39;100979.25;;;5.52;97.87
2549;BME280;1284;53.520;10.248;2023-01-31T02:16:12;100970.94;;;5.53;97.32
2549;BME280;1284;53.520;10.248;2023-01-31T02:18:38;100980.84;;;5.62;97.05
2549;BME280;1284;53.520;10.248;2023-01-31T02:24:11;100966.59;;;5.83;95.58
2549;BME280;1284;53.520;10.248;2023-01-31T02:46:43;100977.06;;;5.71;97.92
2549;BME280;1284;53.520;10.248;2023-01-31T02:49:41;100989.69;;;6.05;96.53
2549;BME280;1284;53.520;10.248;2023-01-31T02:52:45;100979.28;;;6.12;95.82
2549;BME280;1284;53.520;10.248;2023-01-31T02:55:21;100990.16;;;5.90;96.60
2549;BME280;1284;53.520;10.248;2023-01-31T02:58:10;100985.44;;;6.04;97.18
2549;BME280;1284;53.520;10.248;2023-01-31T03:00:39;100990.31;;;5.85;97.10
2549;BME280;1284;53.520;10.248;2023-01-31T03:03:10;100981.50;;;5.93;97.44
2549;BME280;1284;53.520;10.248;2023-01-31T03:05:38;100996.44;;;5.85;97.75
2549;BME280;1284;53.520;10.248;2023-01-31T03:08:05;100988.75;;;6.01;96.86
2549;BME280;1284;53.520;10.248;2023-01-31T03:10:58;100979.16;;;5.91;96.88
2549;BME280;1284;53.520;10.248;2023-01-31T03:16:34;100984.34;;;6.13;95.60
2549;BME280;1284;53.520;10.248;2023-01-31T03:19:25;100981.38;;;5.98;96.25
2549;BME280;1284;53.520;10.248;2023-01-31T03:22:03;100972.53;;;5.89;96.12
2549;BME280;1284;53.520;10.248;2023-01-31T03:24:30;100970.63;;;5.81;96.65
2549;BME280;1284;53.520;10.248;2023-01-31T03:26:59;100960.91;;;5.85;97.69
2549;BME280;1284;53.520;10.248;2023-01-31T03:29:28;100962.50;;;5.86;96.09
2549;BME280;1284;53.520;10.248;2023-01-31T03:32:08;100963.72;;;5.80;96.87
2549;BME280;1284;53.520;10.248;2023-01-31T03:34:36;100963.13;;;5.91;96.03
2549;BME280;1284;53.520;10.248;2023-01-31T03:37:10;100954.28;;;5.74;97.07
2549;BME280;1284;53.520;10.248;2023-01-31T03:45:13;100954.28;;;5.57;99.04
2549;BME280;1284;53.520;10.248;2023-01-31T03:47:42;100957.44;;;5.76;97.76
2549;BME280;1284;53.520;10.248;2023-01-31T03:50:32;100964.69;;;5.84;97.24
2549;BME280;1284;53.520;10.248;2023-01-31T03:53:17;100962.13;;;5.62;98.47
2549;BME280;1284;53.520;10.248;2023-01-31T03:55:50;100969.53;;;5.73;97.73
2549;BME280;1284;53.520;10.248;2023-01-31T03:58:19;100966.91;;;5.90;97.51
2549;BME280;1284;53.520;10.248;2023-01-31T04:00:47;100973.31;;;6.06;96.35
2549;BME280;1284;53.520;10.248;2023-01-31T04:03:29;100965.44;;;6.10;96.36
2549;BME280;1284;53.520;10.248;2023-01-31T04:05:58;100974.59;;;6.17;95.40
2549;BME280;1284;53.520;10.248;2023-01-31T04:08:24;100976.31;;;5.96;96.59
2549;BME280;1284;53.520;10.248;2023-01-31T04:10:58;100969.06;;;6.14;96.18
2549;BME280;1284;53.520;10.248;2023-01-31T04:13:24;100978.97;;;6.22;95.90
2549;BME280;1284;53.520;10.248;2023-01-31T04:15:50;100975.97;;;6.23;95.21
2549;BME280;1284;53.520;10.248;2023-01-31T04:18:15;100975.50;;;6.21;95.55
2549;BME280;1284;53.520;10.248;2023-01-31T04:20:41;100969.69;;;6.28;95.78
2549;BME280;1284;53.520;10.248;2023-01-31T04:23:06;100971.88;;;6.26;95.80
2549;BME280;1284;53.520;10.248;2023-01-31T04:25:32;100972.34;;;6.28;95.22
2549;BME280;1284;53.520;10.248;2023-01-31T04:27:57;100964.03;;;6.21;96.09
2549;BME280;1284;53.520;10.248;2023-01-31T04:30:22;100959.59;;;6.33;96.18
2549;BME280;1284;53.520;10.248;2023-01-31T04:32:48;100958.31;;;6.39;95.04
2549;BME280;1284;53.520;10.248;2023-01-31T04:35:13;100958.78;;;6.42;95.41
2549;BME280;1284;53.520;10.248;2023-01-31T04:37:39;100958.66;;;6.38;95.68
2549;BME280;1284;53.520;10.248;2023-01-31T04:40:05;100965.91;;;6.29;95.63
2549;BME280;1284;53.520;10.248;2023-01-31T04:42:31;100953.44;;;6.33;95.64
2549;BME280;1284;53.520;10.248;2023-01-31T04:44:56;100952.03;;;6.44;95.87
2549;BME280;1284;53.520;10.248;2023-01-31T04:47:22;100949.97;;;6.41;96.32
2549;BME280;1284;53.520;10.248;2023-01-31T04:49:47;100955.22;;;6.29;96.49
2549;BME280;1284;53.520;10.248;2023-01-31T04:52:12;100950.53;;;6.17;97.81
2549;BME280;1284;53.520;10.248;2023-01-31T04:54:38;100959.81;;;6.11;98.59
2549;BME280;1284;53.520;10.248;2023-01-31T04:57:03;100943.72;;;6.28;97.35
2549;BME280;1284;53.520;10.248;2023-01-31T04:59:29;100946.09;;;6.30;97.40
2549;BME280;1284;53.520;10.248;2023-01-31T05:01:54;100944.72;;;5.98;99.66
2549;BME280;1284;53.520;10.248;2023-01-31T05:04:20;100950.84;;;5.99;100.00
2549;BME280;1284;53.520;10.248;2023-01-31T05:06:47;100947.22;;;6.12;99.97
2549;BME280;1284;53.520;10.248;2023-01-31T05:09:12;100947.22;;;6.12;100.00
2549;BME280;1284;53.520;10.248;2023-01-31T05:11:38;100950.06;;;6.15;100.00
2549;BME280;1284;53.520;10.248;2023-01-31T05:14:03;100960.28;;;6.05;100.00
2549;BME280;1284;53.520;10.248;2023-01-31T05:16:29;100961.22;;;6.09;100.00
2549;BME280;1284;53.520;10.248;2023-01-31T05:18:54;100961.38;;;6.12;100.00
2549;BME280;1284;53.520;10.248;2023-01-31T05:21:20;100946.13;;;5.79;100.00
2549;BME280;1284;53.520;10.248;2023-01-31T05:23:45;100953.38;;;5.87;100.00
2549;BME280;1284;53.520;10.248;2023-01-31T05:26:11;100944.53;;;6.12;100.00
2549;BME280;1284;53.520;10.248;2023-01-31T05:28:36;100953.34;;;6.21;100.00
2549;BME280;1284;53.520;10.248;2023-01-31T05:31:05;100956.63;;;6.26;100.00
2549;BME280;1284;53.520;10.248;2023-01-31T05:33:30;100941.06;;;6.20;100.00
2549;BME280;1284;53.520;10.248;2023-01-31T05:35:58;100944.00;;;6.44;100.00
2549;BME280;1284;53.520;10.248;2023-01-31T05:38:23;100950.94;;;6.36;100.00
2549;BME280;1284;53.520;10.248;2023-01-31T05:40:49;100949.03;;;6.46;100.00
2549;BME280;1284;53.520;10.248;2023-01-31T05:43:15;100939.13;;;6.46;100.00
2549;BME280;1284;53.520;10.248;2023-01-31T05:45:40;100945.59;;;6.36;100.00
2549;BME280;1284;53.520;10.248;2023-01-31T05:48:06;100931.16;;;6.29;100.00
2549;BME280;1284;53.520;10.248;2023-01-31T05:50:31;100936.78;;;6.36;100.00
2549;BME280;1284;53.520;10.248;2023-01-31T05:53:07;100925.56;;;6.51;100.00
2549;BME280;1284;53.520;10.248;2023-01-31T05:55:33;100932.91;;;6.63;99.88
2549;BME280;1284;53.520;10.248;2023-01-31T05:57:59;100919.03;;;6.69;99.57
2549;BME280;1284;53.520;10.248;2023-01-31T06:00:25;100929.41;;;6.79;98.13
2549;BME280;1284;53.520;10.248;2023-01-31T06:02:51;100920.59;;;6.70;98.68
2549;BME280;1284;53.520;10.248;2023-01-31T06:05:17;100921.59;;;6.66;98.75
2549;BME280;1284;53.520;10.248;2023-01-31T06:07:42;100935.72;;;6.66;99.30
2549;BME280;1284;53.520;10.248;2023-01-31T06:10:09;100923.97;;;6.59;99.75
2549;BME280;1284;53.520;10.248;2023-01-31T06:12:35;100914.06;;;6.51;99.67
2549;BME280;1284;53.520;10.248;2023-01-31T06:15:02;100932.63;;;6.56;100.00
2549;BME280;1284;53.520;10.248;2023-01-31T06:17:27;100926.50;;;6.55;99.34
2549;BME280;1284;53.520;10.248;2023-01-31T06:19:53;100920.34;;;6.55;99.35
2549;BME280;1284;53.520;10.248;2023-01-31T06:22:19;100909.84;;;6.50;99.99
2549;BME280;1284;53.520;10.248;2023-01-31T06:24:44;100910.94;;;6.49;100.00
2549;BME280;1284;53.520;10.248;2023-01-31T06:27:10;100921.59;;;6.57;99.56
2549;BME280;1284;53.520;10.248;2023-01-31T06:29:36;100918.66;;;6.50;99.54
2549;BME280;1284;53.520;10.248;2023-01-31T06:32:02;100911.09;;;6.52;100.00
2549;BME280;1284;53.520;10.248;2023-01-31T06:34:27;100905.53;;;6.66;99.15
2549;BME280;1284;53.520;10.248;2023-01-31T06:36:53;100898.72;;;6.68;99.21
2549;BME280;1284;53.520;10.248;2023-01-31T06:39:18;100912.03;;;6.56;98.63
2549;BME280;1284;53.520;10.248;2023-01-31T06:41:44;100905.44;;;6.45;100.00
2549;BME280;1284;53.520;10.248;2023-01-31T06:44:09;100894.75;;;6.45;100.00
2549;BME280;1284;53.520;10.248;2023-01-31T06:46:35;100903.00;;;6.61;99.51
2549;BME280;1284;53.520;10.248;2023-01-31T06:49:01;100893.22;;;6.73;98.68
2549;BME280;1284;53.520;10.248;2023-01-31T06:51:26;100892.09;;;6.74;98.41
2549;BME280;1284;53.520;10.248;2023-01-31T06:53:52;100880.09;;;6.51;99.32
2549;BME280;1284;53.520;10.248;2023-01-31T06:56:17;100881.38;;;6.74;98.75
2549;BME280;1284;53.520;10.248;2023-01-31T06:58:43;100872.53;;;6.82;97.45
2549;BME280;1284;53.520;10.248;2023-01-31T07:01:11;100874.75;;;6.80;97.53
2549;BME280;1284;53.520;10.248;2023-01-31T07:06:23;100868.25;;;6.61;98.29
2549;BME280;1284;53.520;10.248;2023-01-31T07:08:48;100857.72;;;6.56;99.66
2549;BME280;1284;53.520;10.248;2023-01-31T07:11:14;100863.13;;;6.76;98.24
2549;BME280;1284;53.520;10.248;2023-01-31T07:13:39;100850.41;;;6.73;97.12
2549;BME280;1284;53.520;10.248;2023-01-31T07:16:05;100839.50;;;6.78;97.79
2549;BME280;1284;53.520;10.248;2023-01-31T07:18:30;100834.69;;;6.92;97.24
2549;BME280;1284;53.520;10.248;2023-01-31T07:20:56;100821.13;;;6.68;97.50
2549;BME280;1284;53.520;10.248;2023-01-31T07:23:21;100817.63;;;6.76;98.24
2549;BME280;1284;53.520;10.248;2023-01-31T07:25:47;100822.16;;;6.84;97.55
2549;BME280;1284;53.520;10.248;2023-01-31T07:28:12;100808.50;;;6.77;97.26
2549;BME280;1284;53.520;10.248;2023-01-31T07:30:38;100800.28;;;6.82;97.21
2549;BME280;1284;53.520;10.248;2023-01-31T07:33:04;100797.19;;;6.72;97.34
2549;BME280;1284;53.520;10.248;2023-01-31T07:35:29;100786.47;;;6.72;97.62
2549;BME280;1284;53.520;10.248;2023-01-31T07:37:55;100789.22;;;6.63;97.81
2549;BME280;1284;53.520;10.248;2023-01-31T07:40:20;100787.59;;;6.71;98.14
2549;BME280;1284;53.520;10.248;2023-01-31T07:42:46;100786.50;;;6.92;96.92
2549;BME280;1284;53.520;10.248;2023-01-31T07:45:13;100778.94;;;6.94;96.52
2549;BME280;1284;53.520;10.248;2023-01-31T07:47:40;100777.59;;;6.59;98.01
2549;BME280;1284;53.520;10.248;2023-01-31T07:50:07;100773.25;;;6.75;97.40
2549;BME280;1284;53.520;10.248;2023-01-31T07:52:33;100763.78;;;6.57;98.42
2549;BME280;1284;53.520;10.248;2023-01-31T07:54:58;100773.78;;;6.69;98.21
2549;BME280;1284;53.520;10.248;2023-01-31T07:57:23;100764.94;;;6.68;98.07
2549;BME280;1284;53.520;10.248;2023-01-31T07:59:49;100767.50;;;6.65;98.55
2549;BME280;1284;53.520;10.248;2023-01-31T08:02:16;100766.41;;;6.86;97.27
2549;BME280;1284;53.520;10.248;2023-01-31T08:05:00;100760.00;;;6.99;97.09
2549;BME280;1284;53.520;10.248;2023-01-31T08:07:27;100746.16;;;6.97;96.77
2549;BME280;1284;53.520;10.248;2023-01-31T08:09:53;100750.34;;;6.86;96.95
2549;BME280;1284;53.520;10.248;2023-01-31T08:12:19;100756.84;;;6.97;96.82
2549;BME280;1284;53.520;10.248;2023-01-31T08:14:44;100754.00;;;7.02;96.56
2549;BME280;1284;53.520;10.248;2023-01-31T08:17:10;100749.84;;;7.05;96.56
2549;BME280;1284;53.520;10.248;2023-01-31T08:19:36;100735.44;;;6.97;96.16
2549;BME280;1284;53.520;10.248;2023-01-31T08:22:02;100733.56;;;6.98;97.16
2549;BME280;1284;53.520;10.248;2023-01-31T08:24:29;100739.03;;;7.01;96.56
2549;BME280;1284;53.520;10.248;2023-01-31T08:26:55;100709.00;;;6.96;96.72
2549;BME280;1284;53.520;10.248;2023-01-31T08:29:21;100719.78;;;7.08;96.72
2549;BME280;1284;53.520;10.248;2023-01-31T08:31:46;100714.88;;;7.22;96.21
2549;BME280;1284;53.520;10.248;2023-01-31T08:34:12;100716.31;;;7.07;96.49
2549;BME280;1284;53.520;10.248;2023-01-31T08:36:37;100715.06;;;7.05;96.90
2549;BME280;1284;53.520;10.248;2023-01-31T08:39:03;100707.16;;;7.08;96.48
2549;BME280;1284;53.520;10.248;2023-01-31T08:41:29;100718.00;;;7.24;96.32
2549;BME280;1284;53.520;10.248;2023-01-31T08:43:56;100714.00;;;7.18;95.87
2549;BME280;1284;53.520;10.248;2023-01-31T08:46:27;100709.13;;;6.99;97.16
2549;BME280;1284;53.520;10.248;2023-01-31T08:48:54;100717.16;;;6.99;97.66
2549;BME280;1284;53.520;10.248;2023-01-31T08:51:20;100697.06;;;6.93;97.45
2549;BME280;1284;53.520;10.248;2023-01-31T08:53:46;100700.25;;;7.07;97.66
2549;BME280;1284;53.520;10.248;2023-01-31T08:56:12;100696.44;;;7.08;96.89
2549;BME280;1284;53.520;10.248;2023-01-31T08:58:39;100705.88;;;7.26;97.17
2549;BME280;1284;53.520;10.248;2023-01-31T09:01:17;100689.16;;;7.29;95.88
2549;BME280;1284;53.520;10.248;2023-01-31T09:03:43;100681.13;;;7.29;96.59
2549;BME280;1284;53.520;10.248;2023-01-31T09:06:13;100681.38;;;7.49;95.30
2549;BME280;1284;53.520;10.248;2023-01-31T09:08:39;100665.72;;;7.39;96.05
2549;BME280;1284;53.520;10.248;2023-01-31T09:11:04;100669.41;;;7.34;95.98
2549;BME280;1284;53.520;10.248;2023-01-31T09:13:30;100660.81;;;7.41;95.87
2549;BME280;1284;53.520;10.248;2023-01-31T09:15:57;100666.16;;;7.28;95.93
2549;BME280;1284;53.520;10.248;2023-01-31T09:18:23;100655.66;;;7.36;95.72
2549;BME280;1284;53.520;10.248;2023-01-31T09:20:48;100644.94;;;7.36;96.03
2549;BME280;1284;53.520;10.248;2023-01-31T09:23:14;100646.28;;;7.42;95.75
2549;BME280;1284;53.520;10.248;2023-01-31T09:25:39;100637.16;;;7.43;95.47
2549;BME280;1284;53.520;10.248;2023-01-31T09:28:05;100630.56;;;7.40;95.77
2549;BME280;1284;53.520;10.248;2023-01-31T09:30:30;100626.09;;;7.44;96.23
2549;BME280;1284;53.520;10.248;2023-01-31T09:32:58;100620.84;;;7.36;96.57
2549;BME280;1284;53.520;10.248;2023-01-31T09:35:25;100616.16;;;7.32;97.14
2549;BME280;1284;53.520;10.248;2023-01-31T09:37:51;100608.78;;;7.42;96.60
2549;BME280;1284;53.520;10.248;2023-01-31T09:40:20;100608.34;;;7.40;96.96
2549;BME280;1284;53.520;10.248;2023-01-31T09:42:52;100608.94;;;7.45;96.92
2549;BME280;1284;53.520;10.248;2023-01-31T09:45:34;100620.19;;;7.39;97.55
2549;BME280;1284;53.520;10.248;2023-01-31T09:48:01;100596.53;;;7.41;96.93
2549;BME280;1284;53.520;10.248;2023-01-31T09:50:35;100586.47;;;7.50;96.10
2549;BME280;1284;53.520;10.248;2023-01-31T09:53:04;100570.94;;;7.55;96.28
2549;BME280;1284;53.520;10.248;2023-01-31T09:55:53;100569.94;;;7.36;96.89
2549;BME280;1284;53.520;10.248;2023-01-31T09:58:34;100563.03;;;7.22;98.49
2549;BME280;1284;53.520;10.248;2023-01-31T10:11:49;100545.63;;;7.28;99.33
2549;BME280;1284;53.520;10.248;2023-01-31T10:20:49;100534.47;;;7.39;99.74
2549;BME280;1284;53.520;10.248;2023-01-31T10:22:53;100534.59;;;7.42;99.61
2549;BME280;1284;53.520;10.248;2023-01-31T10:28:00;100524.66;;;7.30;100.00
2549;BME280;1284;53.520;10.248;2023-01-31T10:30:35;100518.19;;;7.19;100.00
2549;BME280;1284;53.520;10.248;2023-01-31T10:34:02;100521.31;;;7.34;100.00
2549;BME280;1284;53.520;10.248;2023-01-31T10:36:38;100517.16;;;7.48;100.00
2549;BME280;1284;53.520;10.248;2023-01-31T10:46:58;100490.28;;;7.32;100.00
2549;BME280;1284;53.520;10.248;2023-01-31T10:49:25;100493.06;;;7.48;100.00
2549;BME280;1284;53.520;10.248;2023-01-31T10:54:44;100473.69;;;7.67;100.00
2549;BME280;1284;53.520;10.248;2023-01-31T10:57:12;100473.59;;;7.63;100.00
2549;BME280;1284;53.520;10.248;2023-01-31T10:59:43;100463.91;;;7.59;100.00
2549;BME280;1284;53.520;10.248;2023-01-31T11:02:20;100470.72;;;7.56;100.00
2549;BME280;1284;53.520;10.248;2023-01-31T11:04:49;100456.72;;;7.63;100.00
2549;BME280;1284;53.520;10.248;2023-01-31T11:07:14;100462.75;;;7.72;100.00
2549;BME280;1284;53.520;10.248;2023-01-31T11:09:43;100444.03;;;7.60;100.00
2549;BME280;1284;53.520;10.248;2023-01-31T11:12:11;100437.53;;;7.61;100.00
2549;BME280;1284;53.520;10.248;2023-01-31T11:14:37;100429.09;;;7.59;100.00
2549;BME280;1284;53.520;10.248;2023-01-31T11:19:37;100442.88;;;7.61;100.00
2549;BME280;1284;53.520;10.248;2023-01-31T11:22:05;100462.09;;;7.63;100.00
2549;BME280;1284;53.520;10.248;2023-01-31T11:24:33;100454.16;;;7.14;100.00
2549;BME280;1284;53.520;10.248;2023-01-31T11:27:08;100455.44;;;7.45;100.00
2549;BME280;1284;53.520;10.248;2023-01-31T11:29:52;100442.56;;;7.62;100.00
2549;BME280;1284;53.520;10.248;2023-01-31T11:32:22;100435.50;;;7.70;100.00
2549;BME280;1284;53.520;10.248;2023-01-31T11:43:00;100429.41;;;7.85;100.00
2549;BME280;1284;53.520;10.248;2023-01-31T11:46:01;100421.91;;;7.63;100.00
2549;BME280;1284;53.520;10.248;2023-01-31T11:48:45;100423.97;;;7.81;100.00
2549;BME280;1284;53.520;10.248;2023-01-31T11:51:23;100424.09;;;7.73;100.00
2549;BME280;1284;53.520;10.248;2023-01-31T11:53:51;100411.03;;;7.99;100.00
2549;BME280;1284;53.520;10.248;2023-01-31T11:56:23;100409.50;;;7.70;100.00
2549;BME280;1284;53.520;10.248;2023-01-31T11:59:00;100398.09;;;7.73;100.00
2549;BME280;1284;53.520;10.248;2023-01-31T12:01:31;100403.94;;;7.91;100.00
2549;BME280;1284;53.520;10.248;2023-01-31T12:06:58;100383.94;;;7.88;100.00
2549;BME280;1284;53.520;10.248;2023-01-31T12:09:28;100384.66;;;8.01;100.00
2549;BME280;1284;53.520;10.248;2023-01-31T12:12:01;100367.84;;;7.88;100.00
2549;BME280;1284;53.520;10.248;2023-01-31T12:14:39;100373.09;;;8.12;100.00
2549;BME280;1284;53.520;10.248;2023-01-31T12:17:11;100360.97;;;8.03;100.00
2549;BME280;1284;53.520;10.248;2023-01-31T12:22:37;100353.59;;;8.00;100.00
2549;BME280;1284;53.520;10.248;2023-01-31T12:31:17;100355.69;;;8.06;100.00
2549;BME280;1284;53.520;10.248;2023-01-31T12:34:00;100352.19;;;7.90;100.00
2549;BME280;1284;53.520;10.248;2023-01-31T12:46:00;100342.41;;;8.26;100.00
2549;BME280;1284;53.520;10.248;2023-01-31T12:50:30;100329.66;;;8.23;100.00
2549;BME280;1284;53.520;10.248;2023-01-31T13:01:23;100325.97;;;8.27;100.00
2549;BME280;1284;53.520;10.248;2023-01-31T13:04:16;100314.44;;;8.27;100.00
2549;BME280;1284;53.520;10.248;2023-01-31T13:06:50;100302.31;;;8.33;100.00
2549;BME280;1284;53.520;10.248;2023-01-31T13:09:30;100292.22;;;8.26;100.00
2549;BME280;1284;53.520;10.248;2023-01-31T13:12:13;100299.03;;;8.23;100.00
2549;BME280;1284;53.520;10.248;2023-01-31T13:14:42;100287.44;;;8.35;100.00
2549;BME280;1284;53.520;10.248;2023-01-31T13:17:13;100292.00;;;8.19;100.00
2549;BME280;1284;53.520;10.248;2023-01-31T13:19:54;100293.34;;;8.25;100.00
2549;BME280;1284;53.520;10.248;2023-01-31T13:25:21;100277.47;;;8.51;100.00
2549;BME280;1284;53.520;10.248;2023-01-31T13:28:15;100279.41;;;8.70;100.00
2549;BME280;1284;53.520;10.248;2023-01-31T13:30:56;100296.22;;;8.32;100.00
2549;BME280;1284;53.520;10.248;2023-01-31T13:33:24;100297.38;;;8.35;100.00
2549;BME280;1284;53.520;10.248;2023-01-31T13:36:18;100304.91;;;8.45;100.00
2549;BME280;1284;53.520;10.248;2023-01-31T13:38:46;100307.00;;;8.36;100.00
2549;BME280;1284;53.520;10.248;2023-01-31T13:43:43;100304.22;;;8.48;100.00
2549;BME280;1284;53.520;10.248;2023-01-31T13:46:10;100302.53;;;8.74;100.00
2549;BME280;1284;53.520;10.248;2023-01-31T13:48:52;100295.25;;;8.75;100.00
2549;BME280;1284;53.520;10.248;2023-01-31T13:51:43;100281.56;;;8.45;100.00
2549;BME280;1284;53.520;10.248;2023-01-31T13:57:06;100280.88;;;8.67;100.00
2549;BME280;1284;53.520;10.248;2023-01-31T13:59:34;100265.72;;;8.75;100.00
2549;BME280;1284;53.520;10.248;2023-01-31T14:02:04;100270.31;;;8.93;100.00
2549;BME280;1284;53.520;10.248;2023-01-31T14:04:40;100263.97;;;9.01;100.00
2549;BME280;1284;53.520;10.248;2023-01-31T14:09:35;100242.47;;;9.01;100.00
2549;BME280;1284;53.520;10.248;2023-01-31T14:14:48;100253.91;;;8.98;100.00
2549;BME280;1284;53.520;10.248;2023-01-31T14:20:06;100245.88;;;8.98;100.00
2549;BME280;1284;53.520;10.248;2023-01-31T14:25:51;100245.22;;;8.67;100.00
2549;BME280;1284;53.520;10.248;2023-01-31T14:28:16;100251.56;;;8.59;100.00
2549;BME280;1284;53.520;10.248;2023-01-31T14:30:43;100255.19;;;8.66;100.00
2549;BME280;1284;53.520;10.248;2023-01-31T14:49:47;100244.91;;;8.53;100.00
2549;BME280;1284;53.520;10.248;2023-01-31T14:58:13;100225.03;;;8.38;100.00
2549;BME280;1284;53.520;10.248;2023-01-31T15:00:47;100237.72;;;8.57;100.00
2549;BME280;1284;53.520;10.248;2023-01-31T15:06:14;100255.50;;;8.80;100.00
2549;BME280;1284;53.520;10.248;2023-01-31T15:08:47;100232.66;;;8.90;100.00
2549;BME280;1284;53.520;10.248;2023-01-31T15:11:37;100255.91;;;8.82;100.00
2549;BME280;1284;53.520;10.248;2023-01-31T15:14:24;100261.84;;;8.22;100.00
2549;BME280;1284;53.520;10.248;2023-01-31T15:17:13;100252.72;;;8.42;100.00
2549;BME280;1284;53.520;10.248;2023-01-31T15:22:37;100240.16;;;8.46;100.00
2549;BME280;1284;53.520;10.248;2023-01-31T15:25:28;100225.75;;;8.35;100.00
2549;BME280;1284;53.520;10.248;2023-01-31T15:27:57;100235.66;;;8.50;100.00
2549;BME280;1284;53.520;10.248;2023-01-31T15:30:25;100249.69;;;8.78;100.00
2549;BME280;1284;53.520;10.248;2023-01-31T15:33:12;100237.19;;;8.32;100.00
2549;BME280;1284;53.520;10.248;2023-01-31T15:43:41;100258.53;;;8.29;100.00
2549;BME280;1284;53.520;10.248;2023-01-31T15:46:27;100253.97;;;8.29;100.00
2549;BME280;1284;53.520;10.248;2023-01-31T15:48:53;100268.31;;;8.21;100.00
2549;BME280;1284;53.520;10.248;2023-01-31T15:51:19;100262.06;;;8.17;100.00
2549;BME280;1284;53.520;10.248;2023-01-31T15:53:45;100261.31;;;8.16;100.00
2549;BME280;1284;53.520;10.248;2023-01-31T15:56:23;100275.66;;;8.55;100.00
2549;BME280;1284;53.520;10.248;2023-01-31T15:58:52;100267.97;;;8.38;100.00
2549;BME280;1284;53.520;10.248;2023-01-31T16:01:18;100266.56;;;8.13;100.00
2549;BME280;1284;53.520;10.248;2023-01-31T16:03:52;100283.31;;;8.38;100.00
2549;BME280;1284;53.520;10.248;2023-01-31T16:06:32;100274.91;;;8.39;100.00